Early, IA (50535)

10:42 PM CDT on July 23, 2016 (GMT -0500)
Storm Lake Municipal | | Change Station

Elev 1490 ft 42.60 °N, 95.24 °W | Updated 7 minutes ago

Clear
Clear
79 °F
Feels Like 79 °F
N
8
Wind Variable Wind from South

Today
High -- | Low -- °F
--% Chance of Precip.
Yesterday
High -- | Low -- °F
Precip. -- in
Pressure 29.81 in
Visibility 10.0 miles
Clouds Clear
Dew Point 77 °F
Humidity 94%
Rainfall 0.07 in
Snow Depth Not available.
6:04 AM 8:48 PM
Waning Gibbous, 80% visible
METAR KSLB 240335Z AUTO 19007KT 10SM CLR 26/25 A2981 RMK AO2
Pressure 29.81 in
Visibility 10.0 miles
Clouds Clear
Dew Point 77 °F
Humidity 94%
Rainfall 0.07 in
Snow Depth Not available.
6:04 AM 8:48 PM
Waning Gibbous, 80% visible
METAR KSLB 240335Z AUTO 19007KT 10SM CLR 26/25 A2981 RMK AO2

10-Day Weather Forecast

Almanac

Astronomy

Jul. 23, 2016 Rise Set
Actual Time
Civil Twilight
Nautical Twilight
Astronomical Twilight
Moon
Length of Visible Light
Length of Day
Tomorrow will be .
, % of the Moon is Illuminated

Today's Extremes

State Highs State Lows

Community

WunderPhotos

Upload Photos

1,927,022 photos uploaded!

WunderBlog® & News

Nearby

Air Quality

  Air Quality AQ Index Pollutant
Not available.

Snow Depth

Station Depth Elevation

Earthquake Activity

City Distance Mag. Time & Date
Minimum magnitude displayed is 2.5.

Coastal Water Temperatures

Place Temperature

Stations

Nearby Weather Stations

Station Location Temp. Windchill Dew Point Humidity Wind Precip. Elev Updated Type
                   

Watches & Warnings

There are currently no watches in effect.